sensor_id;sensor_type;location;lat;lon;timestamp;P1;durP1;ratioP1;P2;durP2;ratioP2
39750;SDS011;37579;51.074;17.004;2023-07-29T00:02:12;1.63;;;1.00;;
39750;SDS011;37579;51.074;17.004;2023-07-29T00:04:37;2.63;;;1.30;;
39750;SDS011;37579;51.074;17.004;2023-07-29T00:07:03;3.35;;;1.25;;
39750;SDS011;37579;51.074;17.004;2023-07-29T00:09:29;1.45;;;1.35;;
39750;SDS011;37579;51.074;17.004;2023-07-29T00:11:55;2.28;;;1.13;;
39750;SDS011;37579;51.074;17.004;2023-07-29T00:14:20;2.58;;;1.27;;
39750;SDS011;37579;51.074;17.004;2023-07-29T00:16:46;1.42;;;1.20;;
39750;SDS011;37579;51.074;17.004;2023-07-29T00:19:12;4.43;;;1.65;;
39750;SDS011;37579;51.074;17.004;2023-07-29T00:21:38;1.83;;;1.38;;
39750;SDS011;37579;51.074;17.004;2023-07-29T00:24:04;1.90;;;1.23;;
39750;SDS011;37579;51.074;17.004;2023-07-29T00:26:29;2.05;;;1.58;;
39750;SDS011;37579;51.074;17.004;2023-07-29T00:28:57;2.13;;;1.50;;
39750;SDS011;37579;51.074;17.004;2023-07-29T00:31:23;1.60;;;1.25;;
39750;SDS011;37579;51.074;17.004;2023-07-29T00:33:50;1.80;;;1.30;;
39750;SDS011;37579;51.074;17.004;2023-07-29T00:36:18;1.23;;;1.10;;
39750;SDS011;37579;51.074;17.004;2023-07-29T00:38:44;1.30;;;1.10;;
39750;SDS011;37579;51.074;17.004;2023-07-29T00:41:09;2.33;;;1.25;;
39750;SDS011;37579;51.074;17.004;2023-07-29T00:43:40;1.70;;;1.25;;
39750;SDS011;37579;51.074;17.004;2023-07-29T00:46:06;1.90;;;1.20;;
39750;SDS011;37579;51.074;17.004;2023-07-29T00:48:35;1.60;;;1.23;;
39750;SDS011;37579;51.074;17.004;2023-07-29T00:51:01;1.50;;;1.15;;
39750;SDS011;37579;51.074;17.004;2023-07-29T00:53:27;1.90;;;1.20;;
39750;SDS011;37579;51.074;17.004;2023-07-29T00:55:53;2.22;;;1.20;;
39750;SDS011;37579;51.074;17.004;2023-07-29T00:58:19;1.50;;;1.10;;
39750;SDS011;37579;51.074;17.004;2023-07-29T01:00:45;2.25;;;1.23;;
39750;SDS011;37579;51.074;17.004;2023-07-29T01:03:11;1.60;;;1.10;;
39750;SDS011;37579;51.074;17.004;2023-07-29T01:05:39;1.30;;;1.10;;
39750;SDS011;37579;51.074;17.004;2023-07-29T01:08:31;1.83;;;1.00;;
39750;SDS011;37579;51.074;17.004;2023-07-29T01:11:10;2.47;;;1.20;;
39750;SDS011;37579;51.074;17.004;2023-07-29T01:14:02;2.33;;;1.27;;
39750;SDS011;37579;51.074;17.004;2023-07-29T01:16:40;2.25;;;1.20;;
39750;SDS011;37579;51.074;17.004;2023-07-29T01:19:11;2.25;;;1.40;;
39750;SDS011;37579;51.074;17.004;2023-07-29T01:21:53;1.80;;;1.27;;
39750;SDS011;37579;51.074;17.004;2023-07-29T01:24:21;2.55;;;1.42;;
39750;SDS011;37579;51.074;17.004;2023-07-29T01:26:47;2.22;;;1.45;;
39750;SDS011;37579;51.074;17.004;2023-07-29T01:29:12;2.30;;;1.10;;
39750;SDS011;37579;51.074;17.004;2023-07-29T01:31:41;1.73;;;1.20;;
39750;SDS011;37579;51.074;17.004;2023-07-29T01:34:12;2.28;;;1.23;;
39750;SDS011;37579;51.074;17.004;2023-07-29T01:36:45;2.88;;;1.10;;
39750;SDS011;37579;51.074;17.004;2023-07-29T01:39:14;1.38;;;1.17;;
39750;SDS011;37579;51.074;17.004;2023-07-29T01:41:42;1.27;;;1.17;;
39750;SDS011;37579;51.074;17.004;2023-07-29T01:44:09;1.63;;;1.17;;
39750;SDS011;37579;51.074;17.004;2023-07-29T01:46:36;1.10;;;1.00;;
39750;SDS011;37579;51.074;17.004;2023-07-29T01:49:02;1.83;;;1.33;;
39750;SDS011;37579;51.074;17.004;2023-07-29T01:51:30;1.75;;;1.45;;
39750;SDS011;37579;51.074;17.004;2023-07-29T01:53:56;2.95;;;1.55;;
39750;SDS011;37579;51.074;17.004;2023-07-29T01:56:24;1.38;;;1.20;;
39750;SDS011;37579;51.074;17.004;2023-07-29T01:58:53;1.58;;;1.13;;
39750;SDS011;37579;51.074;17.004;2023-07-29T02:01:19;1.50;;;1.23;;
39750;SDS011;37579;51.074;17.004;2023-07-29T02:03:44;1.25;;;1.15;;
39750;SDS011;37579;51.074;17.004;2023-07-29T02:06:10;1.20;;;1.10;;
39750;SDS011;37579;51.074;17.004;2023-07-29T02:08:36;2.15;;;1.60;;
39750;SDS011;37579;51.074;17.004;2023-07-29T02:11:03;1.58;;;1.45;;
39750;SDS011;37579;51.074;17.004;2023-07-29T02:13:30;1.95;;;1.48;;
39750;SDS011;37579;51.074;17.004;2023-07-29T02:15:55;2.13;;;1.40;;
39750;SDS011;37579;51.074;17.004;2023-07-29T02:18:21;2.05;;;1.40;;
39750;SDS011;37579;51.074;17.004;2023-07-29T02:20:47;2.28;;;1.50;;
39750;SDS011;37579;51.074;17.004;2023-07-29T02:23:15;2.33;;;1.38;;
39750;SDS011;37579;51.074;17.004;2023-07-29T02:25:42;1.35;;;1.15;;
39750;SDS011;37579;51.074;17.004;2023-07-29T02:28:08;2.17;;;1.40;;
39750;SDS011;37579;51.074;17.004;2023-07-29T02:30:34;2.30;;;1.40;;
39750;SDS011;37579;51.074;17.004;2023-07-29T02:32:59;2.03;;;1.50;;
39750;SDS011;37579;51.074;17.004;2023-07-29T02:35:26;1.90;;;1.40;;
39750;SDS011;37579;51.074;17.004;2023-07-29T02:37:53;1.20;;;1.10;;
39750;SDS011;37579;51.074;17.004;2023-07-29T02:40:20;1.80;;;1.45;;
39750;SDS011;37579;51.074;17.004;2023-07-29T02:42:48;1.88;;;1.33;;
39750;SDS011;37579;51.074;17.004;2023-07-29T02:45:13;1.48;;;1.38;;
39750;SDS011;37579;51.074;17.004;2023-07-29T02:47:39;1.70;;;1.50;;
39750;SDS011;37579;51.074;17.004;2023-07-29T02:50:05;1.73;;;1.27;;
39750;SDS011;37579;51.074;17.004;2023-07-29T02:52:31;1.95;;;1.50;;
39750;SDS011;37579;51.074;17.004;2023-07-29T02:54:57;1.52;;;1.30;;
39750;SDS011;37579;51.074;17.004;2023-07-29T02:57:23;1.83;;;1.48;;
39750;SDS011;37579;51.074;17.004;2023-07-29T02:59:49;1.42;;;1.13;;
39750;SDS011;37579;51.074;17.004;2023-07-29T03:02:14;1.85;;;1.30;;
39750;SDS011;37579;51.074;17.004;2023-07-29T03:04:41;2.58;;;1.30;;
39750;SDS011;37579;51.074;17.004;2023-07-29T03:07:07;1.63;;;1.40;;
39750;SDS011;37579;51.074;17.004;2023-07-29T03:09:33;2.28;;;1.48;;
39750;SDS011;37579;51.074;17.004;2023-07-29T03:11:59;1.63;;;1.23;;
39750;SDS011;37579;51.074;17.004;2023-07-29T03:14:25;1.40;;;1.10;;
39750;SDS011;37579;51.074;17.004;2023-07-29T03:16:51;1.95;;;1.20;;
39750;SDS011;37579;51.074;17.004;2023-07-29T03:19:17;1.30;;;1.10;;
39750;SDS011;37579;51.074;17.004;2023-07-29T03:21:43;2.00;;;1.30;;
39750;SDS011;37579;51.074;17.004;2023-07-29T03:24:09;2.08;;;1.10;;
39750;SDS011;37579;51.074;17.004;2023-07-29T03:26:35;2.10;;;1.40;;
39750;SDS011;37579;51.074;17.004;2023-07-29T03:29:00;1.30;;;1.20;;
39750;SDS011;37579;51.074;17.004;2023-07-29T03:31:26;2.22;;;1.20;;
39750;SDS011;37579;51.074;17.004;2023-07-29T03:33:52;1.58;;;1.20;;
39750;SDS011;37579;51.074;17.004;2023-07-29T03:36:18;1.70;;;1.05;;
39750;SDS011;37579;51.074;17.004;2023-07-29T03:38:46;1.52;;;1.25;;
39750;SDS011;37579;51.074;17.004;2023-07-29T03:41:12;1.92;;;1.20;;
39750;SDS011;37579;51.074;17.004;2023-07-29T03:43:38;1.60;;;1.20;;
39750;SDS011;37579;51.074;17.004;2023-07-29T03:46:04;1.80;;;1.25;;
39750;SDS011;37579;51.074;17.004;2023-07-29T03:48:31;2.35;;;1.10;;
39750;SDS011;37579;51.074;17.004;2023-07-29T03:50:57;1.30;;;1.20;;
39750;SDS011;37579;51.074;17.004;2023-07-29T03:53:23;3.08;;;1.50;;
39750;SDS011;37579;51.074;17.004;2023-07-29T03:55:48;1.63;;;1.30;;
39750;SDS011;37579;51.074;17.004;2023-07-29T03:58:15;1.92;;;1.35;;
39750;SDS011;37579;51.074;17.004;2023-07-29T04:00:41;1.52;;;1.00;;
39750;SDS011;37579;51.074;17.004;2023-07-29T04:03:07;1.55;;;1.20;;
39750;SDS011;37579;51.074;17.004;2023-07-29T04:05:33;1.95;;;1.27;;
39750;SDS011;37579;51.074;17.004;2023-07-29T04:07:59;2.97;;;1.17;;
39750;SDS011;37579;51.074;17.004;2023-07-29T04:10:25;1.33;;;1.10;;
39750;SDS011;37579;51.074;17.004;2023-07-29T04:12:51;1.50;;;1.15;;
39750;SDS011;37579;51.074;17.004;2023-07-29T04:15:17;2.05;;;1.30;;
39750;SDS011;37579;51.074;17.004;2023-07-29T04:17:43;1.15;;;1.02;;
39750;SDS011;37579;51.074;17.004;2023-07-29T04:20:08;1.38;;;1.00;;
39750;SDS011;37579;51.074;17.004;2023-07-29T04:22:35;1.33;;;1.00;;
39750;SDS011;37579;51.074;17.004;2023-07-29T04:25:01;1.25;;;1.00;;
39750;SDS011;37579;51.074;17.004;2023-07-29T04:27:27;1.40;;;1.13;;
39750;SDS011;37579;51.074;17.004;2023-07-29T04:29:52;1.70;;;1.30;;
39750;SDS011;37579;51.074;17.004;2023-07-29T04:32:18;1.48;;;1.23;;
39750;SDS011;37579;51.074;17.004;2023-07-29T04:34:44;1.50;;;1.08;;
39750;SDS011;37579;51.074;17.004;2023-07-29T04:37:10;2.05;;;1.08;;
39750;SDS011;37579;51.074;17.004;2023-07-29T04:39:36;1.65;;;1.25;;
39750;SDS011;37579;51.074;17.004;2023-07-29T04:42:01;1.50;;;1.27;;
39750;SDS011;37579;51.074;17.004;2023-07-29T04:44:27;1.85;;;1.20;;
39750;SDS011;37579;51.074;17.004;2023-07-29T04:46:53;1.77;;;1.20;;
39750;SDS011;37579;51.074;17.004;2023-07-29T04:49:19;1.38;;;1.17;;
39750;SDS011;37579;51.074;17.004;2023-07-29T04:51:45;2.63;;;1.17;;
39750;SDS011;37579;51.074;17.004;2023-07-29T04:54:11;1.90;;;1.10;;
39750;SDS011;37579;51.074;17.004;2023-07-29T04:56:37;1.10;;;1.00;;
39750;SDS011;37579;51.074;17.004;2023-07-29T04:59:02;2.17;;;1.40;;
39750;SDS011;37579;51.074;17.004;2023-07-29T05:01:28;1.10;;;0.82;;
39750;SDS011;37579;51.074;17.004;2023-07-29T05:03:54;2.13;;;1.30;;
39750;SDS011;37579;51.074;17.004;2023-07-29T05:06:20;1.75;;;1.27;;
39750;SDS011;37579;51.074;17.004;2023-07-29T05:08:46;1.42;;;1.05;;
39750;SDS011;37579;51.074;17.004;2023-07-29T05:11:12;2.45;;;1.30;;
39750;SDS011;37579;51.074;17.004;2023-07-29T05:13:38;1.70;;;1.30;;
39750;SDS011;37579;51.074;17.004;2023-07-29T05:16:04;2.58;;;1.38;;
39750;SDS011;37579;51.074;17.004;2023-07-29T05:18:30;2.65;;;1.20;;
39750;SDS011;37579;51.074;17.004;2023-07-29T05:20:56;1.50;;;1.02;;
39750;SDS011;37579;51.074;17.004;2023-07-29T05:23:21;1.95;;;1.17;;
39750;SDS011;37579;51.074;17.004;2023-07-29T05:25:47;2.60;;;1.17;;
39750;SDS011;37579;51.074;17.004;2023-07-29T05:28:13;1.15;;;1.02;;
39750;SDS011;37579;51.074;17.004;2023-07-29T05:30:39;2.10;;;1.10;;
39750;SDS011;37579;51.074;17.004;2023-07-29T05:33:06;1.30;;;1.00;;
39750;SDS011;37579;51.074;17.004;2023-07-29T05:35:34;3.15;;;1.10;;
39750;SDS011;37579;51.074;17.004;2023-07-29T05:38:00;1.75;;;1.10;;
39750;SDS011;37579;51.074;17.004;2023-07-29T05:40:26;1.73;;;1.05;;
39750;SDS011;37579;51.074;17.004;2023-07-29T05:42:52;1.50;;;1.08;;
39750;SDS011;37579;51.074;17.004;2023-07-29T05:45:17;2.40;;;1.38;;
39750;SDS011;37579;51.074;17.004;2023-07-29T05:47:43;2.13;;;1.40;;
39750;SDS011;37579;51.074;17.004;2023-07-29T05:50:09;1.23;;;1.02;;
39750;SDS011;37579;51.074;17.004;2023-07-29T05:52:36;1.35;;;1.02;;
39750;SDS011;37579;51.074;17.004;2023-07-29T05:55:02;2.17;;;1.00;;
39750;SDS011;37579;51.074;17.004;2023-07-29T05:57:29;1.33;;;0.95;;
39750;SDS011;37579;51.074;17.004;2023-07-29T05:59:54;1.92;;;1.10;;
39750;SDS011;37579;51.074;17.004;2023-07-29T06:02:20;2.33;;;1.15;;
39750;SDS011;37579;51.074;17.004;2023-07-29T06:04:46;1.58;;;1.15;;
39750;SDS011;37579;51.074;17.004;2023-07-29T06:07:12;2.13;;;1.40;;
39750;SDS011;37579;51.074;17.004;2023-07-29T06:09:38;3.13;;;1.20;;
39750;SDS011;37579;51.074;17.004;2023-07-29T06:12:05;2.33;;;1.30;;
39750;SDS011;37579;51.074;17.004;2023-07-29T06:14:31;1.35;;;1.10;;
39750;SDS011;37579;51.074;17.004;2023-07-29T06:16:57;1.98;;;1.40;;
39750;SDS011;37579;51.074;17.004;2023-07-29T06:19:24;2.20;;;1.50;;
39750;SDS011;37579;51.074;17.004;2023-07-29T06:21:50;2.38;;;1.20;;
39750;SDS011;37579;51.074;17.004;2023-07-29T06:24:16;1.13;;;0.95;;
39750;SDS011;37579;51.074;17.004;2023-07-29T06:26:41;1.90;;;1.30;;
39750;SDS011;37579;51.074;17.004;2023-07-29T06:29:07;2.50;;;1.30;;
39750;SDS011;37579;51.074;17.004;2023-07-29T06:31:33;3.20;;;1.13;;
39750;SDS011;37579;51.074;17.004;2023-07-29T06:33:59;1.75;;;0.93;;
39750;SDS011;37579;51.074;17.004;2023-07-29T06:36:25;1.40;;;1.00;;
39750;SDS011;37579;51.074;17.004;2023-07-29T06:38:50;4.50;;;1.08;;
39750;SDS011;37579;51.074;17.004;2023-07-29T06:41:16;4.50;;;0.93;;
39750;SDS011;37579;51.074;17.004;2023-07-29T06:43:42;1.00;;;0.82;;
39750;SDS011;37579;51.074;17.004;2023-07-29T06:46:08;1.40;;;1.20;;
39750;SDS011;37579;51.074;17.004;2023-07-29T06:48:34;2.85;;;1.27;;
39750;SDS011;37579;51.074;17.004;2023-07-29T06:50:59;3.03;;;1.00;;
39750;SDS011;37579;51.074;17.004;2023-07-29T06:53:26;1.38;;;1.05;;
39750;SDS011;37579;51.074;17.004;2023-07-29T06:55:52;1.92;;;1.00;;
39750;SDS011;37579;51.074;17.004;2023-07-29T06:58:18;1.95;;;0.98;;
39750;SDS011;37579;51.074;17.004;2023-07-29T07:00:44;1.33;;;1.00;;
39750;SDS011;37579;51.074;17.004;2023-07-29T07:03:10;1.67;;;1.17;;
39750;SDS011;37579;51.074;17.004;2023-07-29T07:05:36;3.55;;;1.00;;
39750;SDS011;37579;51.074;17.004;2023-07-29T07:08:02;1.25;;;1.00;;
39750;SDS011;37579;51.074;17.004;2023-07-29T07:10:28;1.60;;;0.90;;
39750;SDS011;37579;51.074;17.004;2023-07-29T07:12:54;1.00;;;0.80;;
39750;SDS011;37579;51.074;17.004;2023-07-29T07:15:19;2.75;;;1.10;;
39750;SDS011;37579;51.074;17.004;2023-07-29T07:17:45;1.30;;;0.85;;
39750;SDS011;37579;51.074;17.004;2023-07-29T07:20:11;1.67;;;0.90;;
39750;SDS011;37579;51.074;17.004;2023-07-29T07:22:37;1.58;;;1.00;;
39750;SDS011;37579;51.074;17.004;2023-07-29T07:25:02;3.38;;;1.00;;
39750;SDS011;37579;51.074;17.004;2023-07-29T07:27:29;1.77;;;1.00;;
39750;SDS011;37579;51.074;17.004;2023-07-29T07:29:54;2.72;;;1.13;;
39750;SDS011;37579;51.074;17.004;2023-07-29T07:32:20;2.17;;;0.95;;
39750;SDS011;37579;51.074;17.004;2023-07-29T07:34:46;1.45;;;1.10;;
39750;SDS011;37579;51.074;17.004;2023-07-29T07:37:11;1.60;;;1.10;;
39750;SDS011;37579;51.074;17.004;2023-07-29T07:39:37;2.25;;;0.98;;
39750;SDS011;37579;51.074;17.004;2023-07-29T07:42:03;2.78;;;1.35;;
39750;SDS011;37579;51.074;17.004;2023-07-29T07:44:29;1.73;;;1.02;;
39750;SDS011;37579;51.074;17.004;2023-07-29T07:46:55;1.10;;;0.90;;
39750;SDS011;37579;51.074;17.004;2023-07-29T07:49:21;1.40;;;1.00;;
39750;SDS011;37579;51.074;17.004;2023-07-29T07:51:47;1.40;;;0.88;;
39750;SDS011;37579;51.074;17.004;2023-07-29T07:54:13;3.05;;;1.10;;
39750;SDS011;37579;51.074;17.004;2023-07-29T07:56:39;1.55;;;1.20;;
39750;SDS011;37579;51.074;17.004;2023-07-29T07:59:05;2.67;;;1.10;;
39750;SDS011;37579;51.074;17.004;2023-07-29T08:01:40;1.98;;;1.10;;
39750;SDS011;37579;51.074;17.004;2023-07-29T08:04:06;2.17;;;1.10;;
39750;SDS011;37579;51.074;17.004;2023-07-29T08:06:32;2.05;;;0.90;;
39750;SDS011;37579;51.074;17.004;2023-07-29T08:08:58;1.73;;;1.00;;
39750;SDS011;37579;51.074;17.004;2023-07-29T08:11:24;1.42;;;1.05;;
39750;SDS011;37579;51.074;17.004;2023-07-29T08:13:50;1.55;;;1.20;;
39750;SDS011;37579;51.074;17.004;2023-07-29T08:16:16;3.13;;;0.98;;
39750;SDS011;37579;51.074;17.004;2023-07-29T08:18:42;1.00;;;0.90;;
39750;SDS011;37579;51.074;17.004;2023-07-29T08:21:08;4.10;;;1.20;;
39750;SDS011;37579;51.074;17.004;2023-07-29T08:23:35;1.23;;;0.93;;
39750;SDS011;37579;51.074;17.004;2023-07-29T08:26:02;1.67;;;1.00;;
39750;SDS011;37579;51.074;17.004;2023-07-29T08:28:31;2.25;;;1.10;;
39750;SDS011;37579;51.074;17.004;2023-07-29T08:30:58;2.75;;;1.20;;
39750;SDS011;37579;51.074;17.004;2023-07-29T08:33:25;2.83;;;1.15;;
39750;SDS011;37579;51.074;17.004;2023-07-29T08:35:51;2.03;;;1.30;;
39750;SDS011;37579;51.074;17.004;2023-07-29T08:38:17;1.92;;;1.30;;
39750;SDS011;37579;51.074;17.004;2023-07-29T08:43:41;2.10;;;0.90;;
39750;SDS011;37579;51.074;17.004;2023-07-29T08:46:14;2.90;;;1.20;;
39750;SDS011;37579;51.074;17.004;2023-07-29T08:48:42;3.55;;;0.90;;
39750;SDS011;37579;51.074;17.004;2023-07-29T08:51:09;2.03;;;1.25;;
39750;SDS011;37579;51.074;17.004;2023-07-29T08:53:36;2.15;;;0.90;;
39750;SDS011;37579;51.074;17.004;2023-07-29T08:56:03;2.53;;;1.00;;
39750;SDS011;37579;51.074;17.004;2023-07-29T08:58:30;4.75;;;1.35;;
39750;SDS011;37579;51.074;17.004;2023-07-29T09:00:56;2.22;;;0.90;;
39750;SDS011;37579;51.074;17.004;2023-07-29T09:03:22;1.80;;;1.10;;
39750;SDS011;37579;51.074;17.004;2023-07-29T09:05:48;3.17;;;0.82;;
39750;SDS011;37579;51.074;17.004;2023-07-29T09:08:15;1.83;;;0.80;;
39750;SDS011;37579;51.074;17.004;2023-07-29T09:10:41;1.20;;;0.60;;
39750;SDS011;37579;51.074;17.004;2023-07-29T09:13:07;1.17;;;0.70;;
39750;SDS011;37579;51.074;17.004;2023-07-29T09:15:34;3.30;;;0.90;;
39750;SDS011;37579;51.074;17.004;2023-07-29T09:18:13;1.13;;;0.75;;
39750;SDS011;37579;51.074;17.004;2023-07-29T09:20:41;1.35;;;0.80;;
39750;SDS011;37579;51.074;17.004;2023-07-29T09:23:07;1.52;;;0.80;;
39750;SDS011;37579;51.074;17.004;2023-07-29T09:25:37;1.75;;;0.77;;
39750;SDS011;37579;51.074;17.004;2023-07-29T09:28:08;1.70;;;0.77;;
39750;SDS011;37579;51.074;17.004;2023-07-29T09:30:35;1.05;;;0.77;;
39750;SDS011;37579;51.074;17.004;2023-07-29T09:33:01;3.72;;;1.10;;
39750;SDS011;37579;51.074;17.004;2023-07-29T09:35:30;2.17;;;1.05;;
39750;SDS011;37579;51.074;17.004;2023-07-29T09:37:58;2.80;;;1.00;;
39750;SDS011;37579;51.074;17.004;2023-07-29T09:40:24;1.67;;;0.90;;
39750;SDS011;37579;51.074;17.004;2023-07-29T09:45:21;3.13;;;1.08;;
39750;SDS011;37579;51.074;17.004;2023-07-29T09:47:47;1.98;;;1.00;;
39750;SDS011;37579;51.074;17.004;2023-07-29T09:50:14;1.33;;;0.90;;
39750;SDS011;37579;51.074;17.004;2023-07-29T09:52:40;2.80;;;1.00;;
39750;SDS011;37579;51.074;17.004;2023-07-29T09:55:07;1.23;;;1.10;;
39750;SDS011;37579;51.074;17.004;2023-07-29T09:57:34;1.13;;;0.77;;
39750;SDS011;37579;51.074;17.004;2023-07-29T10:00:01;1.45;;;0.80;;
39750;SDS011;37579;51.074;17.004;2023-07-29T10:02:30;2.88;;;1.10;;
39750;SDS011;37579;51.074;17.004;2023-07-29T10:04:56;2.05;;;1.13;;
39750;SDS011;37579;51.074;17.004;2023-07-29T10:07:23;2.15;;;0.90;;
39750;SDS011;37579;51.074;17.004;2023-07-29T10:09:51;2.40;;;1.70;;
39750;SDS011;37579;51.074;17.004;2023-07-29T10:12:18;1.55;;;1.00;;
39750;SDS011;37579;51.074;17.004;2023-07-29T10:14:44;1.67;;;1.20;;
39750;SDS011;37579;51.074;17.004;2023-07-29T10:17:13;2.95;;;1.02;;
39750;SDS011;37579;51.074;17.004;2023-07-29T10:19:41;2.25;;;1.10;;
39750;SDS011;37579;51.074;17.004;2023-07-29T10:22:08;2.17;;;1.20;;
39750;SDS011;37579;51.074;17.004;2023-07-29T10:24:36;1.65;;;1.17;;
39750;SDS011;37579;51.074;17.004;2023-07-29T10:27:06;1.95;;;1.23;;
39750;SDS011;37579;51.074;17.004;2023-07-29T10:29:37;2.58;;;1.33;;
39750;SDS011;37579;51.074;17.004;2023-07-29T10:32:04;1.02;;;0.90;;
39750;SDS011;37579;51.074;17.004;2023-07-29T10:34:31;1.65;;;1.13;;
39750;SDS011;37579;51.074;17.004;2023-07-29T10:37:00;1.38;;;1.27;;
39750;SDS011;37579;51.074;17.004;2023-07-29T10:39:26;1.85;;;1.67;;
39750;SDS011;37579;51.074;17.004;2023-07-29T10:42:10;2.42;;;1.90;;
39750;SDS011;37579;51.074;17.004;2023-07-29T10:47:11;3.22;;;1.90;;
39750;SDS011;37579;51.074;17.004;2023-07-29T10:49:52;5.30;;;2.25;;
39750;SDS011;37579;51.074;17.004;2023-07-29T10:55:00;2.50;;;2.20;;
39750;SDS011;37579;51.074;17.004;2023-07-29T10:57:33;2.75;;;1.90;;
39750;SDS011;37579;51.074;17.004;2023-07-29T11:00:01;4.45;;;2.25;;
39750;SDS011;37579;51.074;17.004;2023-07-29T11:02:29;2.03;;;1.83;;
39750;SDS011;37579;51.074;17.004;2023-07-29T11:04:56;2.08;;;1.88;;
39750;SDS011;37579;51.074;17.004;2023-07-29T11:07:23;2.97;;;1.65;;
39750;SDS011;37579;51.074;17.004;2023-07-29T11:09:53;2.30;;;2.10;;
39750;SDS011;37579;51.074;17.004;2023-07-29T11:12:41;2.15;;;1.90;;
39750;SDS011;37579;51.074;17.004;2023-07-29T11:20:15;2.22;;;1.90;;
39750;SDS011;37579;51.074;17.004;2023-07-29T11:22:42;4.10;;;1.90;;
39750;SDS011;37579;51.074;17.004;2023-07-29T11:25:09;2.17;;;2.08;;
39750;SDS011;37579;51.074;17.004;2023-07-29T11:27:36;2.10;;;1.60;;
39750;SDS011;37579;51.074;17.004;2023-07-29T11:30:09;2.22;;;1.80;;
39750;SDS011;37579;51.074;17.004;2023-07-29T11:32:36;3.13;;;1.83;;
39750;SDS011;37579;51.074;17.004;2023-07-29T11:35:13;3.15;;;1.90;;
39750;SDS011;37579;51.074;17.004;2023-07-29T11:37:42;1.90;;;1.63;;
39750;SDS011;37579;51.074;17.004;2023-07-29T11:40:18;2.00;;;1.50;;
39750;SDS011;37579;51.074;17.004;2023-07-29T11:42:46;1.70;;;1.42;;
39750;SDS011;37579;51.074;17.004;2023-07-29T11:45:13;3.00;;;1.35;;
39750;SDS011;37579;51.074;17.004;2023-07-29T11:47:39;1.50;;;1.25;;
39750;SDS011;37579;51.074;17.004;2023-07-29T11:50:09;3.20;;;1.40;;
39750;SDS011;37579;51.074;17.004;2023-07-29T11:52:43;1.38;;;1.10;;
39750;SDS011;37579;51.074;17.004;2023-07-29T11:55:11;2.15;;;1.17;;
39750;SDS011;37579;51.074;17.004;2023-07-29T11:57:38;1.30;;;1.08;;
39750;SDS011;37579;51.074;17.004;2023-07-29T12:00:05;2.50;;;1.10;;
39750;SDS011;37579;51.074;17.004;2023-07-29T12:02:36;1.15;;;0.90;;
39750;SDS011;37579;51.074;17.004;2023-07-29T12:05:04;0.90;;;0.70;;
39750;SDS011;37579;51.074;17.004;2023-07-29T12:07:31;4.88;;;1.13;;
39750;SDS011;37579;51.074;17.004;2023-07-29T12:09:58;1.00;;;0.90;;
39750;SDS011;37579;51.074;17.004;2023-07-29T12:12:24;1.25;;;0.90;;
39750;SDS011;37579;51.074;17.004;2023-07-29T12:14:50;2.55;;;1.00;;
39750;SDS011;37579;51.074;17.004;2023-07-29T12:17:16;1.13;;;0.90;;
39750;SDS011;37579;51.074;17.004;2023-07-29T12:19:43;1.65;;;1.20;;
39750;SDS011;37579;51.074;17.004;2023-07-29T12:22:09;1.70;;;0.98;;
39750;SDS011;37579;51.074;17.004;2023-07-29T12:24:37;4.47;;;1.45;;
39750;SDS011;37579;51.074;17.004;2023-07-29T12:27:04;1.33;;;0.90;;
39750;SDS011;37579;51.074;17.004;2023-07-29T12:29:39;1.30;;;0.70;;
39750;SDS011;37579;51.074;17.004;2023-07-29T12:32:06;2.10;;;1.38;;
39750;SDS011;37579;51.074;17.004;2023-07-29T12:34:32;4.32;;;1.38;;
39750;SDS011;37579;51.074;17.004;2023-07-29T12:36:58;2.10;;;1.00;;
39750;SDS011;37579;51.074;17.004;2023-07-29T12:39:32;3.03;;;0.90;;
39750;SDS011;37579;51.074;17.004;2023-07-29T12:42:00;1.50;;;0.93;;
39750;SDS011;37579;51.074;17.004;2023-07-29T12:44:30;1.30;;;0.77;;
39750;SDS011;37579;51.074;17.004;2023-07-29T12:46:57;2.58;;;1.55;;
39750;SDS011;37579;51.074;17.004;2023-07-29T12:49:23;1.45;;;1.00;;
39750;SDS011;37579;51.074;17.004;2023-07-29T12:51:50;0.80;;;0.68;;
39750;SDS011;37579;51.074;17.004;2023-07-29T12:54:15;2.17;;;0.80;;
39750;SDS011;37579;51.074;17.004;2023-07-29T12:56:41;1.38;;;0.70;;
39750;SDS011;37579;51.074;17.004;2023-07-29T12:59:07;1.02;;;0.50;;
39750;SDS011;37579;51.074;17.004;2023-07-29T13:01:33;1.55;;;0.80;;
39750;SDS011;37579;51.074;17.004;2023-07-29T13:03:58;1.08;;;0.70;;
39750;SDS011;37579;51.074;17.004;2023-07-29T13:06:24;1.95;;;0.63;;
39750;SDS011;37579;51.074;17.004;2023-07-29T13:08:51;2.00;;;0.70;;
39750;SDS011;37579;51.074;17.004;2023-07-29T13:11:17;1.23;;;0.93;;
39750;SDS011;37579;51.074;17.004;2023-07-29T13:13:43;1.05;;;0.75;;
39750;SDS011;37579;51.074;17.004;2023-07-29T13:16:10;0.90;;;0.57;;
39750;SDS011;37579;51.074;17.004;2023-07-29T13:18:37;0.65;;;0.65;;
39750;SDS011;37579;51.074;17.004;2023-07-29T13:21:03;3.42;;;0.60;;
39750;SDS011;37579;51.074;17.004;2023-07-29T13:23:28;0.80;;;0.50;;
39750;SDS011;37579;51.074;17.004;2023-07-29T13:25:55;1.17;;;0.90;;
39750;SDS011;37579;51.074;17.004;2023-07-29T13:28:22;0.47;;;0.40;;
39750;SDS011;37579;51.074;17.004;2023-07-29T13:30:48;1.58;;;0.70;;
39750;SDS011;37579;51.074;17.004;2023-07-29T13:33:14;3.53;;;0.65;;
39750;SDS011;37579;51.074;17.004;2023-07-29T13:35:40;0.68;;;0.40;;
39750;SDS011;37579;51.074;17.004;2023-07-29T13:38:06;0.82;;;0.50;;
39750;SDS011;37579;51.074;17.004;2023-07-29T13:40:32;0.40;;;0.40;;
39750;SDS011;37579;51.074;17.004;2023-07-29T13:42:58;2.05;;;0.50;;
39750;SDS011;37579;51.074;17.004;2023-07-29T13:45:24;0.93;;;0.60;;
39750;SDS011;37579;51.074;17.004;2023-07-29T13:47:50;1.33;;;0.60;;
39750;SDS011;37579;51.074;17.004;2023-07-29T13:50:16;0.55;;;0.55;;
39750;SDS011;37579;51.074;17.004;2023-07-29T13:52:45;0.98;;;0.70;;
39750;SDS011;37579;51.074;17.004;2023-07-29T13:55:12;2.45;;;0.90;;
39750;SDS011;37579;51.074;17.004;2023-07-29T13:57:38;1.42;;;0.65;;
39750;SDS011;37579;51.074;17.004;2023-07-29T14:00:05;0.73;;;0.40;;
39750;SDS011;37579;51.074;17.004;2023-07-29T14:02:36;2.17;;;0.77;;
39750;SDS011;37579;51.074;17.004;2023-07-29T14:05:02;0.93;;;0.63;;
39750;SDS011;37579;51.074;17.004;2023-07-29T14:07:28;0.73;;;0.50;;
39750;SDS011;37579;51.074;17.004;2023-07-29T14:09:54;1.25;;;0.68;;
39750;SDS011;37579;51.074;17.004;2023-07-29T14:12:20;0.60;;;0.60;;
39750;SDS011;37579;51.074;17.004;2023-07-29T14:14:45;1.48;;;0.40;;
39750;SDS011;37579;51.074;17.004;2023-07-29T14:17:11;1.35;;;0.65;;
39750;SDS011;37579;51.074;17.004;2023-07-29T14:19:37;0.70;;;0.70;;
39750;SDS011;37579;51.074;17.004;2023-07-29T14:22:03;1.52;;;0.70;;
39750;SDS011;37579;51.074;17.004;2023-07-29T14:24:29;1.70;;;0.70;;
39750;SDS011;37579;51.074;17.004;2023-07-29T14:26:55;0.73;;;0.60;;
39750;SDS011;37579;51.074;17.004;2023-07-29T14:29:21;1.38;;;0.80;;
39750;SDS011;37579;51.074;17.004;2023-07-29T14:31:46;3.05;;;0.70;;
39750;SDS011;37579;51.074;17.004;2023-07-29T14:34:12;2.33;;;0.68;;
39750;SDS011;37579;51.074;17.004;2023-07-29T14:36:38;2.15;;;0.73;;
39750;SDS011;37579;51.074;17.004;2023-07-29T14:39:04;3.95;;;0.80;;
39750;SDS011;37579;51.074;17.004;2023-07-29T14:41:30;1.65;;;0.82;;
39750;SDS011;37579;51.074;17.004;2023-07-29T14:43:56;2.28;;;0.82;;
39750;SDS011;37579;51.074;17.004;2023-07-29T14:46:22;1.58;;;1.00;;
39750;SDS011;37579;51.074;17.004;2023-07-29T14:48:48;0.80;;;0.70;;